createdAt,value
2022-12-24T00:01:01.088Z,9.70
2022-12-24T00:03:28.186Z,9.70
2022-12-24T00:05:54.944Z,9.70
2022-12-24T00:08:21.802Z,9.70
2022-12-24T00:10:53.040Z,9.70
2022-12-24T00:13:20.768Z,9.70
2022-12-24T00:15:48.128Z,9.70
2022-12-24T00:18:14.848Z,9.60
2022-12-24T00:20:41.484Z,9.60
2022-12-24T00:23:08.248Z,9.60
2022-12-24T00:25:35.797Z,9.60
2022-12-24T00:28:02.428Z,9.60
2022-12-24T00:30:29.326Z,9.60
2022-12-24T00:32:57.187Z,9.60
2022-12-24T00:35:24.289Z,9.50
2022-12-24T00:37:50.988Z,9.50
2022-12-24T00:40:18.421Z,9.50
2022-12-24T00:42:45.021Z,9.50
2022-12-24T00:45:13.098Z,9.50
2022-12-24T00:47:39.748Z,9.50
2022-12-24T00:50:07.421Z,9.50
2022-12-24T00:52:34.306Z,9.40
2022-12-24T00:55:01.372Z,9.40
2022-12-24T00:57:28.040Z,9.50
2022-12-24T00:59:54.775Z,9.50
2022-12-24T01:02:21.951Z,9.50
2022-12-24T01:05:07.689Z,9.50
2022-12-24T01:07:34.415Z,9.40
2022-12-24T01:10:01.083Z,9.40
2022-12-24T01:12:27.969Z,9.40
2022-12-24T01:14:54.799Z,9.40
2022-12-24T01:17:21.771Z,9.30
2022-12-24T01:19:48.516Z,9.30
2022-12-24T01:22:15.108Z,9.30
2022-12-24T01:24:42.891Z,9.30
2022-12-24T01:27:09.522Z,9.30
2022-12-24T01:29:36.282Z,9.30
2022-12-24T01:32:03.381Z,9.20
2022-12-24T01:34:30.480Z,9.20
2022-12-24T01:36:57.111Z,9.20
2022-12-24T01:39:23.904Z,9.20
2022-12-24T01:42:09.029Z,9.20
2022-12-24T01:44:41.960Z,9.10
2022-12-24T01:47:16.289Z,9.10
2022-12-24T01:49:54.309Z,9.10
2022-12-24T01:52:25.791Z,9.00
2022-12-24T01:54:58.328Z,8.90
2022-12-24T01:57:56.680Z,8.90
2022-12-24T02:00:23.609Z,8.90
2022-12-24T02:02:53.181Z,8.80
2022-12-24T02:05:33.884Z,8.80
2022-12-24T02:08:04.051Z,8.80
2022-12-24T02:10:30.688Z,8.70
2022-12-24T02:12:59.004Z,8.70
2022-12-24T02:15:35.167Z,8.70
2022-12-24T02:18:17.538Z,8.70
2022-12-24T02:21:14.421Z,8.80
2022-12-24T02:24:21.681Z,8.80
2022-12-24T02:27:37.141Z,8.90
2022-12-24T02:30:12.851Z,8.90
2022-12-24T02:33:00.829Z,8.90
2022-12-24T02:35:54.963Z,8.90
2022-12-24T02:38:49.536Z,8.90
2022-12-24T02:41:25.275Z,8.90
2022-12-24T02:43:54.859Z,8.90
2022-12-24T02:46:29.245Z,9.00
2022-12-24T02:48:59.077Z,9.00
2022-12-24T02:51:25.813Z,9.00
2022-12-24T02:53:52.613Z,9.00
2022-12-24T02:56:40.745Z,9.00
2022-12-24T02:59:45.462Z,9.00
2022-12-24T03:02:47.980Z,9.10
2022-12-24T03:05:50.068Z,9.10
2022-12-24T03:08:47.807Z,9.10
2022-12-24T03:11:15.803Z,9.10
2022-12-24T03:13:43.936Z,9.10
2022-12-24T03:16:15.962Z,9.10
2022-12-24T03:18:46.665Z,9.10
2022-12-24T03:21:34.031Z,9.10
2022-12-24T03:24:01.379Z,9.10
2022-12-24T03:26:30.848Z,9.00
2022-12-24T03:28:57.567Z,9.00
2022-12-24T03:31:24.370Z,9.00
2022-12-24T03:33:51.681Z,9.00
2022-12-24T03:36:18.425Z,9.00
2022-12-24T03:38:45.056Z,9.00
2022-12-24T03:41:11.723Z,9.00
2022-12-24T03:43:38.306Z,9.00
2022-12-24T03:46:08.853Z,9.00
2022-12-24T03:48:36.215Z,9.00
2022-12-24T03:51:04.028Z,9.00
2022-12-24T03:53:30.864Z,9.00
2022-12-24T03:55:58.147Z,9.00
2022-12-24T03:58:24.836Z,8.90
2022-12-24T04:00:53.999Z,8.90
2022-12-24T04:03:21.060Z,9.00
2022-12-24T04:05:47.905Z,9.00
2022-12-24T04:08:14.527Z,9.20
2022-12-24T04:10:41.093Z,9.20
2022-12-24T04:13:07.672Z,9.20
2022-12-24T04:15:34.248Z,9.30
2022-12-24T04:18:00.840Z,9.30
2022-12-24T04:20:27.498Z,9.20
2022-12-24T04:22:54.251Z,9.20
2022-12-24T04:25:20.880Z,9.20
2022-12-24T04:27:47.515Z,9.20
2022-12-24T04:30:14.342Z,9.20
2022-12-24T04:32:40.938Z,9.20
2022-12-24T04:35:08.066Z,9.20
2022-12-24T04:37:35.152Z,9.30
2022-12-24T04:40:02.049Z,9.20
2022-12-24T04:42:28.616Z,9.30
2022-12-24T04:44:55.233Z,9.30
2022-12-24T04:47:21.819Z,9.30
2022-12-24T04:49:48.396Z,9.30
2022-12-24T04:52:14.985Z,9.40
2022-12-24T04:54:41.680Z,9.40
2022-12-24T04:57:16.820Z,9.40
2022-12-24T04:59:43.473Z,9.40
2022-12-24T05:02:10.243Z,9.30
2022-12-24T05:04:36.995Z,9.30
2022-12-24T05:07:03.991Z,9.30
2022-12-24T05:09:30.573Z,9.30
2022-12-24T05:11:57.161Z,9.30
2022-12-24T05:14:23.857Z,9.30
2022-12-24T05:16:50.553Z,9.30
2022-12-24T05:19:17.190Z,9.30
2022-12-24T05:21:43.777Z,9.30
2022-12-24T05:24:30.226Z,9.30
2022-12-24T05:26:58.520Z,9.30
2022-12-24T05:29:25.267Z,9.30
2022-12-24T05:31:52.816Z,9.30
2022-12-24T05:34:19.368Z,9.30
2022-12-24T05:36:46.059Z,9.30
2022-12-24T05:39:17.512Z,9.30
2022-12-24T05:41:45.874Z,9.30
2022-12-24T05:44:12.958Z,9.30
2022-12-24T05:46:39.839Z,9.20
2022-12-24T05:49:06.604Z,9.20
2022-12-24T05:51:33.549Z,9.10
2022-12-24T05:54:03.646Z,9.10
2022-12-24T05:56:30.249Z,9.00
2022-12-24T05:58:57.913Z,9.10
2022-12-24T06:01:25.759Z,9.10
2022-12-24T06:03:53.331Z,9.00
2022-12-24T06:06:23.954Z,9.00
2022-12-24T06:08:53.068Z,9.00
2022-12-24T06:11:24.861Z,9.00
2022-12-24T06:13:54.629Z,8.90
2022-12-24T06:16:22.837Z,8.90
2022-12-24T06:18:49.789Z,9.00
2022-12-24T06:21:17.191Z,8.90
2022-12-24T06:23:51.722Z,8.90
2022-12-24T06:26:22.500Z,8.90
2022-12-24T06:28:50.970Z,8.90
2022-12-24T06:31:22.169Z,8.90
2022-12-24T06:33:50.476Z,8.90
2022-12-24T06:36:22.509Z,9.00
2022-12-24T06:38:49.968Z,9.00
2022-12-24T06:41:18.400Z,9.00
2022-12-24T06:43:47.714Z,9.00
2022-12-24T06:46:15.031Z,9.10
2022-12-24T06:48:44.623Z,9.10
2022-12-24T06:51:13.183Z,9.10
2022-12-24T06:53:39.805Z,9.00
2022-12-24T06:56:10.011Z,9.00
2022-12-24T06:58:37.545Z,9.00
2022-12-24T07:01:07.479Z,9.00
2022-12-24T07:03:34.655Z,9.00
2022-12-24T07:06:01.620Z,9.00
2022-12-24T07:08:28.313Z,9.00
2022-12-24T07:10:55.871Z,9.00
2022-12-24T07:13:22.461Z,8.90
2022-12-24T07:16:00.703Z,9.00
2022-12-24T07:18:27.772Z,8.90
2022-12-24T07:20:54.382Z,8.90
2022-12-24T07:23:21.413Z,8.90
2022-12-24T07:25:48.030Z,8.90
2022-12-24T07:28:14.827Z,8.90
2022-12-24T07:30:41.499Z,8.90
2022-12-24T07:33:08.479Z,8.90
2022-12-24T07:35:35.244Z,8.90
2022-12-24T07:38:02.628Z,8.90
2022-12-24T07:40:29.260Z,8.90
2022-12-24T07:42:58.398Z,8.90
2022-12-24T07:45:25.036Z,8.90
2022-12-24T07:47:51.722Z,8.90
2022-12-24T07:50:18.687Z,8.90
2022-12-24T07:52:45.435Z,8.90
2022-12-24T07:55:12.201Z,8.90
2022-12-24T07:57:38.840Z,8.90
2022-12-24T08:00:06.476Z,8.90
2022-12-24T08:02:33.325Z,8.90
2022-12-24T08:05:00.021Z,8.90
2022-12-24T08:07:26.798Z,9.00
2022-12-24T08:09:53.394Z,9.00
2022-12-24T08:12:20.009Z,9.00
2022-12-24T08:14:46.600Z,9.00
2022-12-24T08:17:13.191Z,8.90
2022-12-24T08:19:39.883Z,9.00
2022-12-24T08:22:06.513Z,9.00
2022-12-24T08:24:33.388Z,9.10
2022-12-24T08:26:59.946Z,9.20
2022-12-24T08:29:26.539Z,9.30
2022-12-24T08:31:55.799Z,9.40
2022-12-24T08:34:22.395Z,9.50
2022-12-24T08:36:49.003Z,9.60
2022-12-24T08:39:15.602Z,9.70
2022-12-24T08:41:42.211Z,9.80
2022-12-24T08:44:08.801Z,9.90
2022-12-24T08:46:35.434Z,9.90
2022-12-24T08:49:02.264Z,9.90
2022-12-24T08:51:28.884Z,9.90
2022-12-24T08:53:56.000Z,9.80
2022-12-24T08:56:22.641Z,9.90
2022-12-24T08:58:49.693Z,9.90
2022-12-24T09:01:19.128Z,9.90
2022-12-24T09:03:46.034Z,10.00
2022-12-24T09:06:13.048Z,10.20
2022-12-24T09:08:39.969Z,10.30
2022-12-24T09:11:13.963Z,10.40
2022-12-24T09:13:41.279Z,10.50
2022-12-24T09:16:08.621Z,10.70
2022-12-24T09:18:35.198Z,10.90
2022-12-24T09:21:06.221Z,11.10
2022-12-24T09:23:39.405Z,11.20
2022-12-24T09:26:22.590Z,11.50
2022-12-24T09:28:50.604Z,11.60
2022-12-24T09:31:17.659Z,11.70
2022-12-24T09:33:47.872Z,11.70
2022-12-24T09:36:15.046Z,11.80
2022-12-24T09:38:41.763Z,11.70
2022-12-24T09:41:42.803Z,11.70
2022-12-24T09:44:38.466Z,11.50
2022-12-24T09:47:35.107Z,11.50
2022-12-24T09:50:05.979Z,11.50
2022-12-24T09:52:40.920Z,11.50
2022-12-24T09:55:22.640Z,11.50
2022-12-24T09:57:51.913Z,11.60
2022-12-24T10:00:33.769Z,11.70
2022-12-24T10:03:00.465Z,11.80
2022-12-24T10:06:01.144Z,11.70
2022-12-24T10:09:08.011Z,11.70
2022-12-24T10:12:32.060Z,11.60
2022-12-24T10:15:26.628Z,11.60
2022-12-24T10:18:15.572Z,11.70
2022-12-24T10:21:12.376Z,11.80
2022-12-24T10:24:10.748Z,11.90
2022-12-24T10:27:12.143Z,11.90
2022-12-24T10:29:44.039Z,11.90
2022-12-24T10:32:10.581Z,11.90
2022-12-24T10:35:01.519Z,11.80
2022-12-24T10:37:29.475Z,11.70
2022-12-24T10:39:58.207Z,11.60
2022-12-24T10:42:50.275Z,11.50
2022-12-24T10:45:22.229Z,11.50
2022-12-24T10:47:55.342Z,11.50
2022-12-24T10:50:39.351Z,11.50
2022-12-24T10:53:34.038Z,11.50
2022-12-24T10:56:07.892Z,11.50
2022-12-24T10:58:35.426Z,11.60
2022-12-24T11:01:03.094Z,11.70
2022-12-24T11:03:38.007Z,11.90
2022-12-24T11:06:15.650Z,11.90
2022-12-24T11:08:45.341Z,12.00
2022-12-24T11:11:16.126Z,12.10
2022-12-24T11:13:51.820Z,12.10
2022-12-24T11:16:32.624Z,12.20
2022-12-24T11:19:07.796Z,12.10
2022-12-24T11:21:40.520Z,12.10
2022-12-24T11:24:12.355Z,12.20
2022-12-24T11:26:42.109Z,12.30
2022-12-24T11:29:08.736Z,12.30
2022-12-24T11:31:38.257Z,12.30
2022-12-24T11:34:31.631Z,12.20
2022-12-24T11:37:20.754Z,12.10
2022-12-24T11:39:52.325Z,12.20
2022-12-24T11:42:38.899Z,12.20
2022-12-24T11:45:28.729Z,12.30
2022-12-24T11:47:56.553Z,12.20
2022-12-24T11:50:32.220Z,12.10
2022-12-24T11:53:18.994Z,12.00
2022-12-24T11:55:52.088Z,11.90
2022-12-24T11:58:47.143Z,11.80
2022-12-24T12:01:47.680Z,11.70
2022-12-24T12:04:21.335Z,11.60
2022-12-24T12:06:58.332Z,11.70
2022-12-24T12:09:46.891Z,11.70
2022-12-24T12:12:28.173Z,11.70
2022-12-24T12:15:09.738Z,11.70
2022-12-24T12:17:57.383Z,11.80
2022-12-24T12:20:41.174Z,11.80
2022-12-24T12:23:10.883Z,11.90
2022-12-24T12:25:59.576Z,11.90
2022-12-24T12:28:51.305Z,12.00
2022-12-24T12:31:40.944Z,12.00
2022-12-24T12:34:24.980Z,11.90
2022-12-24T12:36:57.879Z,12.10
2022-12-24T12:39:31.531Z,11.80
2022-12-24T12:42:34.398Z,11.70
2022-12-24T12:45:32.349Z,11.70
2022-12-24T12:48:31.523Z,11.70
2022-12-24T12:51:55.137Z,11.80
2022-12-24T12:54:41.452Z,11.70
2022-12-24T12:57:13.640Z,11.70
2022-12-24T12:59:55.117Z,11.60
2022-12-24T13:03:14.151Z,11.50
2022-12-24T13:06:06.329Z,11.50
2022-12-24T13:09:14.647Z,11.50
2022-12-24T13:12:22.914Z,11.50
2022-12-24T13:15:14.519Z,11.60
2022-12-24T13:18:05.470Z,11.60
2022-12-24T13:20:33.938Z,11.70
2022-12-24T13:23:02.925Z,11.80
2022-12-24T13:25:39.384Z,11.80
2022-12-24T13:28:24.216Z,11.80
2022-12-24T13:31:12.955Z,11.80
2022-12-24T13:33:39.512Z,11.80
2022-12-24T13:36:16.449Z,11.90
2022-12-24T13:38:52.151Z,11.90
2022-12-24T13:41:39.549Z,11.90
2022-12-24T13:44:06.928Z,11.80
2022-12-24T13:46:58.255Z,11.70
2022-12-24T13:49:40.458Z,11.60
2022-12-24T13:52:11.459Z,11.60
2022-12-24T13:54:43.320Z,11.60
2022-12-24T13:57:59.324Z,11.50
2022-12-24T14:00:34.363Z,11.50
2022-12-24T14:03:13.400Z,11.50
2022-12-24T14:05:43.013Z,11.60
2022-12-24T14:08:25.352Z,11.60
2022-12-24T14:11:07.094Z,11.60
2022-12-24T14:13:39.941Z,11.60
2022-12-24T14:16:42.571Z,11.50
2022-12-24T14:19:22.969Z,11.40
2022-12-24T14:22:04.555Z,11.30
2022-12-24T14:25:18.675Z,11.20
2022-12-24T14:27:54.033Z,11.10
2022-12-24T14:30:24.715Z,11.10
2022-12-24T14:32:52.825Z,11.10
2022-12-24T14:35:23.928Z,11.10
2022-12-24T14:38:26.347Z,11.10
2022-12-24T14:41:26.030Z,11.00
2022-12-24T14:44:35.941Z,10.80
2022-12-24T14:47:30.473Z,10.70
2022-12-24T14:50:16.818Z,10.50
2022-12-24T14:53:19.550Z,10.30
2022-12-24T14:55:48.927Z,10.20
2022-12-24T14:58:39.770Z,10.00
2022-12-24T15:01:28.555Z,9.80
2022-12-24T15:04:10.646Z,9.60
2022-12-24T15:06:49.536Z,9.50
2022-12-24T15:09:21.198Z,9.40
2022-12-24T15:11:51.047Z,9.20
2022-12-24T15:14:19.744Z,9.10
2022-12-24T15:16:59.663Z,9.00
2022-12-24T15:19:35.882Z,9.00
2022-12-24T15:22:04.304Z,8.90
2022-12-24T15:24:35.687Z,8.80
2022-12-24T15:27:16.045Z,8.70
2022-12-24T15:29:45.882Z,8.60
2022-12-24T15:32:18.643Z,8.60
2022-12-24T15:34:52.753Z,8.60
2022-12-24T15:37:24.158Z,8.60
2022-12-24T15:40:21.008Z,8.50
2022-12-24T15:42:47.863Z,8.40
2022-12-24T15:45:21.603Z,8.30
2022-12-24T15:48:01.878Z,8.30
2022-12-24T15:50:31.486Z,8.20
2022-12-24T15:53:20.879Z,8.10
2022-12-24T15:56:03.435Z,8.00
2022-12-24T15:58:33.163Z,7.90
2022-12-24T16:01:08.820Z,7.80
2022-12-24T16:03:39.173Z,7.70
2022-12-24T16:06:12.635Z,7.60
2022-12-24T16:08:41.400Z,7.50
2022-12-24T16:11:29.847Z,7.50
2022-12-24T16:14:03.555Z,7.40
2022-12-24T16:16:40.390Z,7.30
2022-12-24T16:19:16.875Z,7.30
2022-12-24T16:21:44.015Z,7.20
2022-12-24T16:24:26.117Z,7.10
2022-12-24T16:26:53.151Z,7.00
2022-12-24T16:29:20.413Z,6.90
2022-12-24T16:31:55.805Z,6.80
2022-12-24T16:34:32.651Z,6.80
2022-12-24T16:37:00.375Z,6.70
2022-12-24T16:39:33.695Z,6.60
2022-12-24T16:42:21.977Z,6.60
2022-12-24T16:44:51.983Z,6.50
2022-12-24T16:47:35.709Z,6.40
2022-12-24T16:50:08.449Z,6.40
2022-12-24T16:52:35.102Z,6.40
2022-12-24T16:55:02.206Z,6.40
2022-12-24T16:57:28.973Z,6.40
2022-12-24T16:59:55.889Z,6.50
2022-12-24T17:02:24.925Z,6.50
2022-12-24T17:04:52.185Z,6.50
2022-12-24T17:07:22.270Z,6.60
2022-12-24T17:09:48.975Z,6.60
2022-12-24T17:12:16.052Z,6.60
2022-12-24T17:14:42.720Z,6.70
2022-12-24T17:17:26.043Z,6.70
2022-12-24T17:19:53.207Z,6.80
2022-12-24T17:22:20.020Z,6.80
2022-12-24T17:24:46.975Z,6.70
2022-12-24T17:27:14.429Z,6.70
2022-12-24T17:29:41.265Z,6.70
2022-12-24T17:32:07.901Z,6.70
2022-12-24T17:34:36.267Z,6.60
2022-12-24T17:37:02.882Z,6.50
2022-12-24T17:39:29.595Z,6.40
2022-12-24T17:42:01.359Z,6.30
2022-12-24T17:44:28.033Z,6.20
2022-12-24T17:46:54.733Z,6.10
2022-12-24T17:49:21.404Z,6.10
2022-12-24T17:51:48.102Z,6.10
2022-12-24T17:54:14.704Z,6.10
2022-12-24T17:56:43.964Z,6.00
2022-12-24T17:59:10.827Z,6.00
2022-12-24T18:01:37.516Z,5.90
2022-12-24T18:04:05.096Z,5.90
2022-12-24T18:06:31.910Z,5.80
2022-12-24T18:08:58.539Z,5.80
2022-12-24T18:11:36.342Z,5.80
2022-12-24T18:14:05.111Z,5.70
2022-12-24T18:16:40.105Z,5.70
2022-12-24T18:19:10.183Z,5.60
2022-12-24T18:21:36.809Z,5.60
2022-12-24T18:24:04.579Z,5.60
2022-12-24T18:26:33.118Z,5.60
2022-12-24T18:29:04.193Z,5.60
2022-12-24T18:31:33.278Z,5.50
2022-12-24T18:34:03.127Z,5.60
2022-12-24T18:36:30.821Z,5.50
2022-12-24T18:38:57.946Z,5.40
2022-12-24T18:41:28.599Z,5.50
2022-12-24T18:43:56.569Z,5.50
2022-12-24T18:46:27.356Z,5.50
2022-12-24T18:48:55.711Z,5.40
2022-12-24T18:51:24.464Z,5.40
2022-12-24T18:53:51.626Z,5.40
2022-12-24T18:56:25.487Z,5.40
2022-12-24T18:58:56.186Z,5.30
2022-12-24T19:01:29.909Z,5.40
2022-12-24T19:03:57.794Z,5.40
2022-12-24T19:06:25.621Z,5.40
2022-12-24T19:08:58.559Z,5.40
2022-12-24T19:11:29.644Z,5.50
2022-12-24T19:13:57.937Z,5.50
2022-12-24T19:16:25.504Z,5.50
2022-12-24T19:18:52.192Z,5.50
2022-12-24T19:21:19.368Z,5.50
2022-12-24T19:23:47.203Z,5.50
2022-12-24T19:26:17.076Z,5.60
2022-12-24T19:28:43.734Z,5.60
2022-12-24T19:31:20.386Z,5.60
2022-12-24T19:33:53.474Z,5.70
2022-12-24T19:36:28.797Z,5.60
2022-12-24T19:38:56.769Z,5.70
2022-12-24T19:41:29.225Z,5.70
2022-12-24T19:44:00.269Z,5.70
2022-12-24T19:46:30.172Z,5.70
2022-12-24T19:49:00.286Z,5.70
2022-12-24T19:51:29.555Z,5.70
2022-12-24T19:53:57.806Z,5.70
2022-12-24T19:56:27.077Z,5.70
2022-12-24T19:58:57.183Z,5.70
2022-12-24T20:01:27.392Z,5.70
2022-12-24T20:03:55.051Z,5.70
2022-12-24T20:06:26.255Z,5.70
2022-12-24T20:08:57.744Z,5.70
2022-12-24T20:11:24.362Z,5.70
2022-12-24T20:13:50.971Z,5.70
2022-12-24T20:16:21.048Z,5.80
2022-12-24T20:18:58.715Z,5.70
2022-12-24T20:21:26.419Z,5.80
2022-12-24T20:23:53.832Z,5.80
2022-12-24T20:26:24.536Z,5.80
2022-12-24T20:28:55.445Z,5.80
2022-12-24T20:31:28.696Z,5.70
2022-12-24T20:34:00.499Z,5.70
2022-12-24T20:36:29.451Z,5.80
2022-12-24T20:38:57.968Z,5.80
2022-12-24T20:41:28.003Z,5.80
2022-12-24T20:43:57.408Z,5.80
2022-12-24T20:46:24.641Z,5.80
2022-12-24T20:48:51.684Z,5.80
2022-12-24T20:51:24.596Z,5.80
2022-12-24T20:53:59.024Z,5.80
2022-12-24T20:56:26.729Z,5.80
2022-12-24T20:58:54.015Z,5.80
2022-12-24T21:01:24.857Z,5.80
2022-12-24T21:03:54.317Z,5.90
2022-12-24T21:06:23.208Z,5.90
2022-12-24T21:08:51.230Z,5.90
2022-12-24T21:11:36.815Z,5.80
2022-12-24T21:14:04.336Z,5.90
2022-12-24T21:16:33.411Z,5.90
2022-12-24T21:19:08.636Z,5.90
2022-12-24T21:21:36.216Z,5.90
2022-12-24T21:24:04.532Z,5.90
2022-12-24T21:26:32.010Z,5.90
2022-12-24T21:28:59.285Z,5.90
2022-12-24T21:31:25.957Z,5.90
2022-12-24T21:33:52.791Z,5.90
2022-12-24T21:36:20.109Z,5.80
2022-12-24T21:38:47.780Z,5.90
2022-12-24T21:41:20.124Z,5.90
2022-12-24T21:43:47.019Z,5.90
2022-12-24T21:46:18.388Z,5.80
2022-12-24T21:49:03.965Z,5.80
2022-12-24T21:51:31.024Z,5.80
2022-12-24T21:54:16.855Z,5.80
2022-12-24T21:57:02.127Z,5.70
2022-12-24T21:59:29.765Z,5.70
2022-12-24T22:01:57.810Z,5.70
2022-12-24T22:04:25.093Z,5.70
2022-12-24T22:07:10.389Z,5.80
2022-12-24T22:09:58.888Z,5.80
2022-12-24T22:12:29.551Z,5.80
2022-12-24T22:14:56.170Z,5.80
2022-12-24T22:17:25.523Z,5.80
2022-12-24T22:19:54.821Z,5.80
2022-12-24T22:22:22.990Z,5.80
2022-12-24T22:24:49.713Z,5.90
2022-12-24T22:27:17.368Z,5.90
2022-12-24T22:29:44.011Z,5.90
2022-12-24T22:32:10.632Z,5.80
2022-12-24T22:34:49.275Z,5.90
2022-12-24T22:37:16.798Z,5.90
2022-12-24T22:39:43.702Z,5.90
2022-12-24T22:42:10.443Z,5.90
2022-12-24T22:44:37.081Z,6.00
2022-12-24T22:47:03.829Z,6.00
2022-12-24T22:49:30.694Z,6.00
2022-12-24T22:51:58.557Z,6.10
2022-12-24T22:54:25.673Z,6.20
2022-12-24T22:56:52.324Z,6.20
2022-12-24T22:59:19.317Z,6.10
2022-12-24T23:01:47.712Z,6.10
2022-12-24T23:04:14.871Z,6.10
2022-12-24T23:06:42.166Z,6.10
2022-12-24T23:09:12.636Z,6.10
2022-12-24T23:11:40.522Z,6.10
2022-12-24T23:14:25.933Z,6.10
2022-12-24T23:16:52.604Z,6.10
2022-12-24T23:19:19.187Z,6.10
2022-12-24T23:21:45.768Z,6.10
2022-12-24T23:24:12.363Z,6.10
2022-12-24T23:26:39.004Z,6.10
2022-12-24T23:29:06.507Z,6.20
2022-12-24T23:31:34.628Z,6.20
2022-12-24T23:34:02.010Z,6.10
2022-12-24T23:36:28.748Z,6.10
2022-12-24T23:38:55.499Z,6.20
2022-12-24T23:41:22.149Z,6.20
2022-12-24T23:43:48.880Z,6.20
2022-12-24T23:46:17.620Z,6.10
2022-12-24T23:48:45.790Z,6.10
2022-12-24T23:51:23.402Z,6.20
2022-12-24T23:53:52.066Z,6.40
2022-12-24T23:56:19.501Z,6.10
2022-12-24T23:58:46.977Z,6.20
